Raytown, Texas
Current Conditions -  °F | °C
As of 4:35 AM on Wednesday 22 Oct 2014 (Local Time) from KSWW Reporting Station
Overcast Overcast  
Wind Chill: 65°   Ceiling: 11000
Heat Index: 65°   Visibility: 10mi
Dew Point: 49°   Wind: 8mph
Humidity: 55%   Direction: 140°SE
Pressure: 30.11"   Gusts: NA
Location:  32.8661°N, 100.503°W
Report Text: KSWW 220935Z AUTO 14007KT 10SM OVC110 19/09 A3011 RMK AO2 T01850094
Loading
Personal Weather Stations






























Interactive Weather Map
Tropical Storm Tracking
New forecast layout! Learn more

10-Day Weather Forecast

Advertisements
Track Severe Weather on mobile